This is the latest recevied weather packets stored in our database for station/object K6TTR. If no packets are shown the sender has not sent any weather packets the latest 10 day(s).
| Time | Temp. | Humidity | Pressure | Rain* | Wind** | Luminosity | Snow |
|---|---|---|---|---|---|---|---|
| 1777489715 | 14.44° C | 40% | 1020.7 hPa | 0 mm | - | 979 W/m² | - |
| 1777489420 | 14.44° C | 40% | 1020.7 hPa | 0 mm | - | 976 W/m² | - |
| 1777489126 | 14.44° C | 43% | 1020.9 hPa | 0 mm | - | 981 W/m² | - |
| 1777488516 | 14.44° C | 46% | 1021 hPa | 0 mm | - | 984 W/m² | - |
| 1777488219 | 14.44° C | 49% | 1020.9 hPa | 0 mm | - | 967 W/m² | - |
| 1777487922 | 13.89° C | 50% | 1020.9 hPa | 0 mm | - | 976 W/m² | - |
| 1777487626 | 13.89° C | 52% | 1020.9 hPa | 0 mm | - | 944 W/m² | - |
| 1777487328 | 13.33° C | 54% | 1021 hPa | 0 mm | - | 937 W/m² | - |
| 1777487015 | 13.33° C | 54% | 1021 hPa | 0 mm | - | 928 W/m² | - |
| 1777486721 | 13.33° C | 55% | 1021.1 hPa | 0 mm | - | 916 W/m² | - |
| 1777486111 | 12.78° C | 58% | 1021.2 hPa | 0 mm | - | 886 W/m² | - |
| 1777485818 | 12.78° C | 57% | 1021.2 hPa | 0 mm | - | 868 W/m² | - |
| 1777484912 | 12.22° C | 58% | 1021.3 hPa | 0 mm | - | 155 W/m² | - |
| 1777484321 | 11.67° C | 58% | 1021.2 hPa | 0 mm | - | 120 W/m² | - |
| 1777484026 | 11.67° C | 59% | 1021.2 hPa | 0 mm | - | 70 W/m² | - |
| 1777483712 | 11.67° C | 59% | 1021.3 hPa | 0 mm | - | 134 W/m² | - |
| 1777483123 | 11.67° C | 59% | 1021.2 hPa | 0 mm | - | 79 W/m² | - |
| 1777482828 | 11.67° C | 63% | 1021.3 hPa | 0 mm | - | 62 W/m² | - |
| 1777481922 | 10.56° C | 68% | 1021.5 hPa | 0 mm | - | 65 W/m² | - |
| 1777481626 | 10.56° C | 69% | 1021.5 hPa | 0 mm | - | 54 W/m² | - |
| 1777481328 | 10° C | 72% | 1021.6 hPa | 0 mm | - | 113 W/m² | - |
| 1777481013 | 9.44° C | 73% | 1021.6 hPa | 0 mm | - | 134 W/m² | - |
| 1777480717 | 9.44° C | 72% | 1021.6 hPa | 0 mm | - | 83 W/m² | - |
| 1777480423 | 8.89° C | 76% | 1021.7 hPa | 0 mm | - | 598 W/m² | - |
| 1777480128 | 8.33° C | 78% | 1021.8 hPa | 0 mm | - | 77 W/m² | - |
* Rain latest hour (hover to see other rain measurements)
** Current wind speed in m/s (hover to see current wind gust speed)